Time,TemperatureF,DewpointF,PressureIn,WindDirection,WindDirectionDegrees,WindSpeedMPH,WindSpeedGustMPH,Humidity,HourlyPrecipIn,Conditions,Clouds,dailyrainin,SoftwareType,DateUTC
2013-02-21 15:02:00,-999.0,-99.9,-100.00,North,-999,-999.0,-999.0,-999,-99.99,,,-99.99,Acu-Link.com,2013-02-21 20:02:00,
2013-02-21 15:17:00,31.3,19.8,29.93,ESE,112,7.8,-999.0,62,-99.99,,,0.00,Acu-Link.com,2013-02-21 20:17:00,
2013-02-21 15:32:00,31.3,19.8,29.94,East,90,4.7,-999.0,62,-99.99,,,0.00,Acu-Link.com,2013-02-21 20:32:00,
2013-02-21 15:48:00,30.9,19.8,29.95,South,180,5.3,-999.0,63,-99.99,,,0.00,Acu-Link.com,2013-02-21 20:48:00,
2013-02-21 16:03:00,30.6,19.9,29.94,East,90,3.2,-999.0,64,-99.99,,,0.00,Acu-Link.com,2013-02-21 21:03:00,
2013-02-21 16:18:00,30.4,20.1,29.93,East,90,5.8,-999.0,65,-99.99,,,0.00,Acu-Link.com,2013-02-21 21:18:00,
2013-02-21 16:33:00,30.4,20.4,29.93,SSE,157,3.7,-999.0,66,-99.99,,,0.00,Acu-Link.com,2013-02-21 21:33:00,
2013-02-21 16:48:00,30.2,20.2,29.93,East,90,6.8,-999.0,66,-99.99,,,0.00,Acu-Link.com,2013-02-21 21:48:00,
2013-02-21 17:03:00,29.8,20.2,29.92,East,90,6.8,-999.0,67,-99.99,,,0.00,Acu-Link.com,2013-02-21 22:03:00,
2013-02-21 17:18:00,29.7,20.5,29.92,ESE,112,4.7,-999.0,68,-99.99,,,0.00,Acu-Link.com,2013-02-21 22:18:00,
2013-02-21 17:33:00,29.5,20.6,29.91,ENE,67,4.7,-999.0,69,-99.99,,,0.00,Acu-Link.com,2013-02-21 22:33:00,
2013-02-21 17:48:00,29.3,20.4,29.92,East,90,5.8,-999.0,69,-99.99,,,0.00,Acu-Link.com,2013-02-21 22:48:00,
2013-02-21 18:04:00,29.3,20.8,29.92,East,90,4.2,-999.0,70,-99.99,,,0.00,Acu-Link.com,2013-02-21 23:04:00,
2013-02-21 18:19:00,29.3,20.4,29.92,ESE,112,3.7,-999.0,69,-99.99,,,0.00,Acu-Link.com,2013-02-21 23:19:00,
2013-02-21 18:34:00,29.3,20.4,29.93,SE,135,4.2,-999.0,69,-99.99,,,0.00,Acu-Link.com,2013-02-21 23:34:00,
2013-02-21 18:49:00,29.3,21.4,29.91,ESE,112,4.7,-999.0,72,-99.99,,,0.00,Acu-Link.com,2013-02-21 23:49:00,
2013-02-21 19:04:00,28.6,22.3,29.89,ESE,112,4.7,-999.0,77,-99.99,,,0.00,Acu-Link.com,2013-02-22 00:04:00,
2013-02-21 19:19:00,28.4,23.3,29.89,ESE,112,6.3,-999.0,81,-99.99,,,0.00,Acu-Link.com,2013-02-22 00:19:00,
2013-02-21 19:34:00,28.0,23.5,29.88,ESE,112,6.3,-999.0,83,-99.99,,,0.00,Acu-Link.com,2013-02-22 00:34:00,
2013-02-21 19:49:00,27.9,24.3,29.87,SE,135,6.3,-999.0,86,-99.99,,,0.00,Acu-Link.com,2013-02-22 00:49:00,
2013-02-21 20:04:00,28.0,25.2,29.86,SE,135,5.8,-999.0,89,-99.99,,,0.00,Acu-Link.com,2013-02-22 01:04:00,
2013-02-21 20:20:00,28.2,25.1,29.85,ESE,112,4.7,-999.0,88,-99.99,,,0.00,Acu-Link.com,2013-02-22 01:20:00,
2013-02-21 20:35:00,28.2,24.8,29.87,ESE,112,5.3,-999.0,87,-99.99,,,0.00,Acu-Link.com,2013-02-22 01:35:00,
2013-02-21 20:50:00,27.5,24.7,29.84,SE,135,4.7,-999.0,89,-99.99,,,0.00,Acu-Link.com,2013-02-22 01:50:00,
2013-02-21 21:05:00,27.1,24.3,29.84,East,90,5.8,-999.0,89,-99.99,,,0.00,Acu-Link.com,2013-02-22 02:05:00,
2013-02-21 21:20:00,27.5,25.2,29.82,ESE,112,6.8,-999.0,91,-99.99,,,0.00,Acu-Link.com,2013-02-22 02:20:00,
2013-02-21 21:35:00,27.9,25.6,29.80,ESE,112,6.8,-999.0,91,-99.99,,,0.00,Acu-Link.com,2013-02-22 02:35:00,
2013-02-21 21:50:00,27.7,25.4,29.81,East,90,5.8,-999.0,91,-99.99,,,0.00,Acu-Link.com,2013-02-22 02:50:00,
2013-02-21 22:05:00,27.5,25.5,29.80,ESE,112,6.3,-999.0,92,-99.99,,,0.00,Acu-Link.com,2013-02-22 03:05:00,
2013-02-21 22:21:00,27.5,25.2,29.82,ESE,112,10.4,-999.0,91,-99.99,,,0.00,Acu-Link.com,2013-02-22 03:21:00,
2013-02-21 22:36:00,27.7,25.9,29.81,ESE,112,5.8,-999.0,93,-99.99,,,0.00,Acu-Link.com,2013-02-22 03:36:00,
2013-02-21 22:51:00,27.7,25.7,29.83,East,90,8.3,-999.0,92,-99.99,,,0.00,Acu-Link.com,2013-02-22 03:51:00,
2013-02-21 23:06:00,27.9,26.1,29.83,ESE,112,7.3,-999.0,93,-99.99,,,0.00,Acu-Link.com,2013-02-22 04:06:00,
2013-02-21 23:21:00,28.2,26.7,29.83,East,90,5.8,-999.0,94,-99.99,,,0.00,Acu-Link.com,2013-02-22 04:21:00,
2013-02-21 23:36:00,28.4,26.9,29.83,SE,135,8.3,-999.0,94,-99.99,,,0.00,Acu-Link.com,2013-02-22 04:36:00,
2013-02-21 23:51:00,28.8,27.3,29.82,SE,135,5.3,-999.0,94,-99.99,,,0.00,Acu-Link.com,2013-02-22 04:51:00,